East Quogue, New York
Current Conditions -  °F | °C
As of 7:53 PM on Wednesday 17 Dec 2014 (Local Time) from KFOK Reporting Station
Overcast Overcast  
Wind Chill: 42°   Ceiling: 4300
Heat Index: 46°   Visibility: 10mi
Dew Point: 33°   Wind: 8mph
Humidity: 61%   Direction: 290°WNW
Pressure: 29.85"   Gusts: NA
Location:  40.85°N, 72.58°W
Report Text: KFOK 180053Z 29007KT 10SM OVC043 08/01 A2985 RMK AO2 SLP110 T00780006
Loading
Personal Weather Stations






























Interactive Weather Map New forecast layout! Learn more

10-Day Weather Forecast

Advertisements
Track Severe Weather on mobile